createdAt,value
2023-04-25T00:00:48.000Z,78.8
2023-04-25T00:02:05.000Z,79
2023-04-25T00:03:20.000Z,79
2023-04-25T00:04:36.000Z,79
2023-04-25T00:05:53.000Z,79
2023-04-25T00:07:09.000Z,79.1
2023-04-25T00:08:25.673Z,79.1
2023-04-25T00:09:41.000Z,79
2023-04-25T00:10:58.000Z,78.8
2023-04-25T00:12:14.000Z,79
2023-04-25T00:13:30.000Z,79
2023-04-25T00:14:47.000Z,79.2
2023-04-25T00:16:03.000Z,79.1
2023-04-25T00:17:19.000Z,79.4
2023-04-25T00:18:35.000Z,79.1
2023-04-25T00:19:51.000Z,79.2
2023-04-25T00:21:07.000Z,79.4
2023-04-25T00:22:23.000Z,79.2
2023-04-25T00:23:40.000Z,79.4
2023-04-25T00:24:56.000Z,79.4
2023-04-25T00:26:12.000Z,79.4
2023-04-25T00:27:29.000Z,79.4
2023-04-25T00:28:45.000Z,79.4
2023-04-25T00:30:01.000Z,79.3
2023-04-25T00:31:17.000Z,79.5
2023-04-25T00:32:34.000Z,79.5
2023-04-25T00:33:50.000Z,79.5
2023-04-25T00:35:06.000Z,79.6
2023-04-25T00:36:23.000Z,79.9
2023-04-25T00:37:38.333Z,80.1
2023-04-25T00:38:54.742Z,80.2
2023-04-25T00:40:10.000Z,80.1
2023-04-25T00:41:27.000Z,80.3
2023-04-25T00:42:43.000Z,80.3
2023-04-25T00:43:59.000Z,80.4
2023-04-25T00:45:16.000Z,80.4
2023-04-25T00:46:32.000Z,80.3
2023-04-25T00:47:48.000Z,80.2
2023-04-25T00:49:05.091Z,80.2
2023-04-25T00:50:24.000Z,80.4
2023-04-25T00:51:37.000Z,80.4
2023-04-25T00:52:53.000Z,80.2
2023-04-25T00:54:09.279Z,80.2
2023-04-25T00:55:25.000Z,80.1
2023-04-25T00:56:41.000Z,80.1
2023-04-25T00:57:58.151Z,80.1
2023-04-25T00:59:14.000Z,80.1
2023-04-25T01:00:30.000Z,80.1
2023-04-25T01:01:47.051Z,80.3
2023-04-25T01:03:03.328Z,80.6
2023-04-25T01:04:19.000Z,80.7
2023-04-25T01:05:35.000Z,80.8
2023-04-25T01:06:52.000Z,81
2023-04-25T01:08:08.000Z,81.2
2023-04-25T01:09:24.000Z,81.5
2023-04-25T01:10:40.000Z,81.7
2023-04-25T01:11:56.000Z,81.7
2023-04-25T01:13:15.000Z,82
2023-04-25T01:14:28.000Z,82
2023-04-25T01:15:45.000Z,82
2023-04-25T01:17:01.573Z,82
2023-04-25T01:18:17.000Z,82.3
2023-04-25T01:19:34.000Z,82.3
2023-04-25T01:20:50.000Z,82.4
2023-04-25T01:22:06.752Z,82.5
2023-04-25T01:23:22.000Z,82.8
2023-04-25T01:24:39.000Z,82.7
2023-04-25T01:25:55.000Z,82.6
2023-04-25T01:27:10.000Z,82.6
2023-04-25T01:28:27.000Z,82.5
2023-04-25T01:29:43.000Z,82.5
2023-04-25T01:30:59.000Z,82.4
2023-04-25T01:32:16.109Z,82.3
2023-04-25T01:33:32.000Z,82.4
2023-04-25T01:34:48.000Z,82.3
2023-04-25T01:36:04.000Z,82.1
2023-04-25T01:37:21.000Z,82
2023-04-25T01:38:37.000Z,81.8
2023-04-25T01:39:53.000Z,81.7
2023-04-25T01:41:10.066Z,81.5
2023-04-25T01:42:29.000Z,81.5
2023-04-25T01:43:41.000Z,81.5
2023-04-25T01:45:00.000Z,81.7
2023-04-25T01:46:13.000Z,81.7
2023-04-25T01:47:29.000Z,81.8
2023-04-25T01:48:45.000Z,81.9
2023-04-25T01:50:02.000Z,81.9
2023-04-25T01:51:18.000Z,81.9
2023-04-25T01:52:34.000Z,81.9
2023-04-25T01:53:51.000Z,82
2023-04-25T01:55:07.452Z,82.1
2023-04-25T01:56:23.000Z,82.3
2023-04-25T01:57:39.926Z,82.4
2023-04-25T01:58:56.000Z,82.4
2023-04-25T02:00:12.000Z,82.6
2023-04-25T02:01:27.000Z,82.6
2023-04-25T02:02:44.000Z,82.9
2023-04-25T02:04:00.000Z,83
2023-04-25T02:05:19.000Z,83.1
2023-04-25T02:06:33.000Z,83.1
2023-04-25T02:07:52.000Z,83.2
2023-04-25T02:09:05.000Z,83.2
2023-04-25T02:10:21.889Z,83.3
2023-04-25T02:11:38.000Z,83.1
2023-04-25T02:12:54.000Z,83
2023-04-25T02:14:13.000Z,83
2023-04-25T02:15:27.000Z,83.1
2023-04-25T02:16:43.000Z,83.2
2023-04-25T02:17:58.669Z,83.4
2023-04-25T02:19:18.000Z,83.5
2023-04-25T02:20:31.000Z,83.8
2023-04-25T02:21:47.000Z,84
2023-04-25T02:23:03.000Z,84.1
2023-04-25T02:24:20.000Z,84.2
2023-04-25T02:25:36.000Z,84.2
2023-04-25T02:26:52.000Z,84.2
2023-04-25T02:28:09.000Z,84.2
2023-04-25T02:29:25.000Z,84.3
2023-04-25T02:30:41.000Z,84.4
2023-04-25T02:31:57.886Z,84.5
2023-04-25T02:33:14.000Z,84.6
2023-04-25T02:34:29.000Z,84.6
2023-04-25T02:35:45.000Z,84.7
2023-04-25T02:37:02.000Z,84.8
2023-04-25T02:38:18.000Z,84.8
2023-04-25T02:39:34.000Z,84.7
2023-04-25T02:40:50.960Z,84.7
2023-04-25T02:42:07.000Z,84.8
2023-04-25T02:43:23.000Z,84.8
2023-04-25T02:44:39.000Z,84.9
2023-04-25T02:45:56.000Z,85.1
2023-04-25T02:47:12.429Z,85.2
2023-04-25T02:48:28.000Z,85.4
2023-04-25T02:49:45.000Z,85.5
2023-04-25T02:51:00.000Z,85.5
2023-04-25T02:52:16.000Z,85.4
2023-04-25T02:53:32.000Z,85.4
2023-04-25T02:54:49.000Z,85.1
2023-04-25T02:56:05.506Z,84.9
2023-04-25T02:57:21.000Z,84.8
2023-04-25T02:58:38.000Z,84.8
2023-04-25T02:59:54.000Z,84.7
2023-04-25T03:01:10.000Z,84.4
2023-04-25T03:02:27.000Z,84.3
2023-04-25T03:03:43.267Z,84.3
2023-04-25T03:04:59.000Z,84.3
2023-04-25T03:06:15.000Z,84.2
2023-04-25T03:07:31.000Z,84.3
2023-04-25T03:08:47.000Z,84.2
2023-04-25T03:10:03.000Z,84.3
2023-04-25T03:11:20.046Z,84.5
2023-04-25T03:12:36.000Z,84.5
2023-04-25T03:13:52.000Z,84.7
2023-04-25T03:15:08.000Z,84.9
2023-04-25T03:16:25.000Z,85
2023-04-25T03:17:41.000Z,85.1
2023-04-25T03:18:57.000Z,85.1
2023-04-25T03:20:13.000Z,85.2
2023-04-25T03:21:30.000Z,85.2
2023-04-25T03:22:46.000Z,85.4
2023-04-25T03:24:01.000Z,85.5
2023-04-25T03:25:17.000Z,85.6
2023-04-25T03:26:34.000Z,85.9
2023-04-25T03:27:50.000Z,86.2
2023-04-25T03:29:06.000Z,86.3
2023-04-25T03:30:22.000Z,86.5
2023-04-25T03:31:39.000Z,86.6
2023-04-25T03:32:55.000Z,86.3
2023-04-25T03:34:11.000Z,86.2
2023-04-25T03:35:27.000Z,85.8
2023-04-25T03:36:47.000Z,85.7
2023-04-25T03:38:00.000Z,85.6
2023-04-25T03:39:16.000Z,85.6
2023-04-25T03:40:31.000Z,85.6
2023-04-25T03:41:48.000Z,85.5
2023-04-25T03:43:04.000Z,85.4
2023-04-25T03:44:20.541Z,85.4
2023-04-25T03:45:36.000Z,85.3
2023-04-25T03:46:53.030Z,85.2
2023-04-25T03:48:12.000Z,85.2
2023-04-25T03:49:25.000Z,85.2
2023-04-25T03:50:41.000Z,85.3
2023-04-25T03:51:58.000Z,85.3
2023-04-25T03:53:14.000Z,85.3
2023-04-25T03:54:30.000Z,85.3
2023-04-25T03:55:46.000Z,85.2
2023-04-25T03:57:01.000Z,85.4
2023-04-25T03:58:18.000Z,85.5
2023-04-25T03:59:34.000Z,85.6
2023-04-25T04:00:50.000Z,85.7
2023-04-25T04:02:06.000Z,85.7
2023-04-25T04:03:23.000Z,85.8
2023-04-25T04:04:39.000Z,85.7
2023-04-25T04:05:55.000Z,85.7
2023-04-25T04:07:11.000Z,85.7
2023-04-25T04:08:28.000Z,85.7
2023-04-25T04:09:44.000Z,85.8
2023-04-25T04:11:00.000Z,85.7
2023-04-25T04:12:16.000Z,85.5
2023-04-25T04:13:32.000Z,85.4
2023-04-25T04:14:48.000Z,85.3
2023-04-25T04:16:04.000Z,85
2023-04-25T04:17:20.000Z,84.9
2023-04-25T04:18:37.000Z,84.8
2023-04-25T04:19:53.000Z,84.8
2023-04-25T04:21:09.000Z,84.8
2023-04-25T04:22:25.000Z,84.8
2023-04-25T04:23:42.000Z,84.6
2023-04-25T04:24:58.000Z,84.6
2023-04-25T04:26:14.000Z,84.5
2023-04-25T04:27:30.000Z,84.3
2023-04-25T04:28:47.000Z,84.3
2023-04-25T04:30:02.000Z,84.2
2023-04-25T04:31:18.000Z,84.2
2023-04-25T04:32:34.000Z,84.2
2023-04-25T04:33:50.000Z,84.3
2023-04-25T04:35:07.000Z,84.2
2023-04-25T04:36:23.000Z,84.4
2023-04-25T04:37:39.000Z,84.3
2023-04-25T04:38:55.000Z,84.2
2023-04-25T04:40:12.000Z,84.3
2023-04-25T04:41:28.000Z,83.9
2023-04-25T04:42:44.000Z,83.9
2023-04-25T04:44:00.000Z,83.9
2023-04-25T04:45:17.000Z,83.8
2023-04-25T04:46:32.000Z,83.9
2023-04-25T04:47:48.000Z,83.8
2023-04-25T04:49:04.000Z,83.9
2023-04-25T04:50:21.000Z,84
2023-04-25T04:51:37.000Z,84.1
2023-04-25T04:52:53.566Z,84.1
2023-04-25T04:54:09.000Z,84.3
2023-04-25T04:55:26.050Z,84.3
2023-04-25T04:56:42.000Z,84.3
2023-04-25T04:57:58.000Z,84.4
2023-04-25T04:59:14.000Z,84.3
2023-04-25T05:00:31.000Z,84.4
2023-04-25T05:01:47.000Z,84.3
2023-04-25T05:03:02.000Z,84.3
2023-04-25T05:04:18.000Z,84.3
2023-04-25T05:05:35.000Z,84.1
2023-04-25T05:06:51.000Z,84.3
2023-04-25T05:08:07.000Z,84.1
2023-04-25T05:09:23.000Z,84.1
2023-04-25T05:10:39.000Z,83.8
2023-04-25T05:11:56.000Z,83.8
2023-04-25T05:13:12.000Z,83.8
2023-04-25T05:14:28.000Z,83.9
2023-04-25T05:15:44.895Z,83.5
2023-04-25T05:17:01.000Z,83.5
2023-04-25T05:18:17.000Z,83.3
2023-04-25T05:19:33.000Z,83.2
2023-04-25T05:20:49.000Z,82
2023-04-25T05:22:06.000Z,82.2
2023-04-25T05:23:22.468Z,81.8
2023-04-25T05:24:38.000Z,81.7
2023-04-25T05:25:54.000Z,81.6
2023-04-25T05:27:11.000Z,81.3
2023-04-25T05:28:27.000Z,81
2023-04-25T05:29:43.000Z,80.8
2023-04-25T05:30:59.000Z,80.8
2023-04-25T05:32:16.000Z,80.6
2023-04-25T05:33:32.000Z,80.6
2023-04-25T05:34:48.000Z,80.5
2023-04-25T05:36:03.000Z,80.5
2023-04-25T05:37:20.000Z,80
2023-04-25T05:38:36.000Z,80
2023-04-25T05:39:52.000Z,79.9
2023-04-25T05:41:08.000Z,79.9
2023-04-25T05:42:25.000Z,79.9
2023-04-25T05:43:41.000Z,79.7
2023-04-25T05:44:57.000Z,79.5
2023-04-25T05:46:13.000Z,79.4
2023-04-25T05:47:30.000Z,79.5
2023-04-25T05:48:46.000Z,78.8
2023-04-25T05:50:02.000Z,78.8
2023-04-25T05:51:18.000Z,78.7
2023-04-25T05:52:34.000Z,78.7
2023-04-25T05:53:50.000Z,78.6
2023-04-25T05:55:06.000Z,78
2023-04-25T05:56:22.000Z,77.5
2023-04-25T05:57:38.000Z,77.5
2023-04-25T05:58:55.000Z,77.9
2023-04-25T06:00:10.000Z,77.9
2023-04-25T06:01:26.000Z,78
2023-04-25T06:02:42.000Z,78
2023-04-25T06:03:59.000Z,77.4
2023-04-25T06:05:15.000Z,77.5
2023-04-25T06:06:31.000Z,77.1
2023-04-25T06:07:47.886Z,76.8
2023-04-25T06:09:04.138Z,76.8
2023-04-25T06:10:20.000Z,76.8
2023-04-25T06:11:36.000Z,76.7
2023-04-25T06:12:52.000Z,76
2023-04-25T06:14:09.000Z,75.9
2023-04-25T06:15:25.000Z,75.9
2023-04-25T06:16:40.000Z,75.3
2023-04-25T06:17:56.000Z,74.9
2023-04-25T06:19:13.000Z,75.2
2023-04-25T06:20:29.000Z,74.4
2023-04-25T06:21:45.000Z,73.4
2023-04-25T06:23:01.000Z,72.8
2023-04-25T06:24:18.000Z,72.2
2023-04-25T06:25:34.000Z,71.9
2023-04-25T06:26:50.000Z,72.2
2023-04-25T06:28:06.000Z,71.8
2023-04-25T06:29:23.000Z,72.3
2023-04-25T06:30:39.000Z,72.5
2023-04-25T06:31:55.000Z,72.4
2023-04-25T06:33:10.000Z,72.7
2023-04-25T06:34:26.000Z,71.7
2023-04-25T06:35:43.000Z,71.4
2023-04-25T06:36:59.000Z,71.6
2023-04-25T06:38:15.000Z,71.5
2023-04-25T06:39:31.000Z,71.7
2023-04-25T06:40:48.000Z,71.7
2023-04-25T06:42:04.000Z,71.4
2023-04-25T06:43:23.000Z,70.8
2023-04-25T06:44:36.000Z,70.9
2023-04-25T06:45:53.000Z,71.2
2023-04-25T06:47:09.000Z,71.1
2023-04-25T06:48:25.000Z,70.5
2023-04-25T06:49:40.865Z,69.7
2023-04-25T06:50:57.000Z,69.7
2023-04-25T06:52:13.000Z,70.1
2023-04-25T06:53:29.000Z,70.5
2023-04-25T06:54:45.000Z,70.6
2023-04-25T06:56:02.000Z,70.6
2023-04-25T06:57:18.000Z,71
2023-04-25T06:58:34.000Z,71.3
2023-04-25T06:59:50.000Z,70.9
2023-04-25T07:01:07.000Z,70.8
2023-04-25T07:02:23.239Z,70.6
2023-04-25T07:03:39.000Z,70.9
2023-04-25T07:04:55.000Z,70.7
2023-04-25T07:06:11.000Z,70.3
2023-04-25T07:07:27.000Z,69.9
2023-04-25T07:08:43.000Z,70.5
2023-04-25T07:09:59.000Z,70.8
2023-04-25T07:11:15.000Z,71
2023-04-25T07:12:32.000Z,71.4
2023-04-25T07:13:48.000Z,71.7
2023-04-25T07:15:04.000Z,71.4
2023-04-25T07:16:20.000Z,71.7
2023-04-25T07:17:37.000Z,71.6
2023-04-25T07:18:53.386Z,71.8
2023-04-25T07:20:09.000Z,71.6
2023-04-25T07:21:25.000Z,72.1
2023-04-25T07:22:41.000Z,72.3
2023-04-25T07:23:57.000Z,72
2023-04-25T07:25:13.000Z,72.6
2023-04-25T07:26:29.000Z,72.7
2023-04-25T07:27:46.000Z,72.9
2023-04-25T07:29:02.000Z,72.5
2023-04-25T07:30:18.000Z,72.8
2023-04-25T07:31:34.000Z,72.4
2023-04-25T07:32:51.000Z,72.5
2023-04-25T07:34:07.000Z,72.3
2023-04-25T07:35:23.000Z,72.8
2023-04-25T07:36:39.000Z,73.3
2023-04-25T07:37:56.000Z,73.6
2023-04-25T07:39:11.000Z,73.8
2023-04-25T07:40:27.000Z,73.1
2023-04-25T07:41:43.000Z,73.2
2023-04-25T07:42:59.000Z,73.7
2023-04-25T07:44:16.000Z,73.6
2023-04-25T07:45:32.000Z,74
2023-04-25T07:46:48.687Z,74
2023-04-25T07:48:04.000Z,74.3
2023-04-25T07:49:21.000Z,74
2023-04-25T07:50:37.000Z,73.8
2023-04-25T07:51:53.000Z,74
2023-04-25T07:53:09.000Z,74.3
2023-04-25T07:54:26.000Z,74.6
2023-04-25T07:55:42.000Z,74.9
2023-04-25T07:56:58.000Z,74.3
2023-04-25T07:58:14.000Z,74
2023-04-25T07:59:31.000Z,73.8
2023-04-25T08:00:47.000Z,73.2
2023-04-25T08:02:03.000Z,73.3
2023-04-25T08:03:19.000Z,73.8
2023-04-25T08:04:36.000Z,74.1
2023-04-25T08:05:52.000Z,74.3
2023-04-25T08:07:08.000Z,74.4
2023-04-25T08:08:24.000Z,74.3
2023-04-25T08:09:41.117Z,74.3
2023-04-25T08:10:57.000Z,74
2023-04-25T08:12:12.000Z,74.3
2023-04-25T08:13:28.000Z,74.4
2023-04-25T08:14:45.000Z,74
2023-04-25T08:16:01.000Z,74.4
2023-04-25T08:17:17.000Z,74.7
2023-04-25T08:18:33.000Z,75
2023-04-25T08:19:50.000Z,74.9
2023-04-25T08:21:06.294Z,73.7
2023-04-25T08:22:22.000Z,73.5
2023-04-25T08:23:38.000Z,73.1
2023-04-25T08:24:55.000Z,72.6
2023-04-25T08:26:11.000Z,71.8
2023-04-25T08:27:27.000Z,70.3
2023-04-25T08:28:42.000Z,70.6
2023-04-25T08:29:59.000Z,70.6
2023-04-25T08:31:15.223Z,70.7
2023-04-25T08:32:31.000Z,70.3
2023-04-25T08:33:47.000Z,69.8
2023-04-25T08:35:03.000Z,68.4
2023-04-25T08:36:20.000Z,68
2023-04-25T08:37:36.000Z,67.7
2023-04-25T08:38:52.659Z,66.1
2023-04-25T08:40:08.000Z,66.3
2023-04-25T08:41:25.135Z,67
2023-04-25T08:42:41.000Z,67.3
2023-04-25T08:43:57.607Z,66.5
2023-04-25T08:45:12.000Z,67
2023-04-25T08:46:29.000Z,65.9
2023-04-25T08:47:45.000Z,65.5
2023-04-25T08:49:01.000Z,65
2023-04-25T08:50:17.000Z,65.3
2023-04-25T08:51:34.000Z,64.9
2023-04-25T08:52:50.000Z,65.3
2023-04-25T08:54:06.000Z,65.3
2023-04-25T08:55:26.000Z,65.6
2023-04-25T08:56:39.000Z,65.7
2023-04-25T08:57:55.000Z,65
2023-04-25T08:59:11.000Z,64.3
2023-04-25T09:00:27.000Z,64.4
2023-04-25T09:01:43.000Z,64.1
2023-04-25T09:02:59.000Z,64
2023-04-25T09:04:18.000Z,64.3
2023-04-25T09:05:31.000Z,64
2023-04-25T09:06:47.000Z,64.6
2023-04-25T09:08:04.000Z,65
2023-04-25T09:09:20.000Z,64.6
2023-04-25T09:10:36.000Z,64.4
2023-04-25T09:11:52.000Z,64.3
2023-04-25T09:13:09.000Z,64.4
2023-04-25T09:14:25.000Z,64.8
2023-04-25T09:15:41.000Z,64.2
2023-04-25T09:16:57.000Z,64.3
2023-04-25T09:18:13.000Z,64.1
2023-04-25T09:19:29.000Z,62.3
2023-04-25T09:20:45.000Z,62.5
2023-04-25T09:22:01.000Z,63
2023-04-25T09:23:18.000Z,63.6
2023-04-25T09:24:34.000Z,63.3
2023-04-25T09:25:50.000Z,63
2023-04-25T09:27:06.000Z,62.6
2023-04-25T09:28:23.000Z,62.9
2023-04-25T09:29:39.000Z,63.1
2023-04-25T09:30:55.000Z,63.4
2023-04-25T09:32:11.000Z,64
2023-04-25T09:33:28.000Z,62.9
2023-04-25T09:34:43.000Z,61.8
2023-04-25T09:35:59.000Z,61.3
2023-04-25T09:37:15.000Z,62.1
2023-04-25T09:38:32.000Z,62.9
2023-04-25T09:39:48.000Z,61.5
2023-04-25T09:41:04.000Z,61.5
2023-04-25T09:42:20.000Z,61.9
2023-04-25T09:43:36.000Z,61.5
2023-04-25T09:44:53.000Z,62.9
2023-04-25T09:46:09.000Z,62.9
2023-04-25T09:47:25.661Z,61.5
2023-04-25T09:48:41.000Z,62.3
2023-04-25T09:49:58.000Z,59.8
2023-04-25T09:51:13.000Z,59.1
2023-04-25T09:52:29.000Z,59.2
2023-04-25T09:53:45.000Z,59.2
2023-04-25T09:55:02.114Z,59.5
2023-04-25T09:56:18.000Z,59.3
2023-04-25T09:57:34.000Z,58.6
2023-04-25T09:58:50.819Z,59.1
2023-04-25T10:00:07.060Z,59.3
2023-04-25T10:01:23.000Z,60
2023-04-25T10:02:39.553Z,60.7
2023-04-25T10:03:55.000Z,60.9
2023-04-25T10:05:12.000Z,61
2023-04-25T10:06:28.000Z,61.7
2023-04-25T10:07:43.000Z,62.5
2023-04-25T10:08:59.000Z,61.4
2023-04-25T10:10:16.000Z,61.5
2023-04-25T10:11:32.000Z,61.6
2023-04-25T10:12:48.464Z,61.7
2023-04-25T10:14:04.000Z,60.8
2023-04-25T10:15:20.000Z,60.9
2023-04-25T10:16:36.000Z,60.9
2023-04-25T10:17:52.000Z,61.5
2023-04-25T10:19:08.000Z,61.6
2023-04-25T10:20:24.000Z,62
2023-04-25T10:21:41.000Z,62.7
2023-04-25T10:22:57.000Z,63
2023-04-25T10:24:13.000Z,63.4
2023-04-25T10:25:29.874Z,64.2
2023-04-25T10:26:46.000Z,64.6
2023-04-25T10:28:02.000Z,64.7
2023-04-25T10:29:18.000Z,64.5
2023-04-25T10:30:34.000Z,64.8
2023-04-25T10:31:51.000Z,64.7
2023-04-25T10:33:07.459Z,64.6
2023-04-25T10:34:23.000Z,65
2023-04-25T10:35:39.000Z,64.5
2023-04-25T10:36:56.000Z,63.9
2023-04-25T10:38:12.000Z,63.8
2023-04-25T10:39:28.000Z,62.7
2023-04-25T10:40:44.000Z,62.2
2023-04-25T10:42:01.000Z,62.1
2023-04-25T10:43:17.367Z,61.6
2023-04-25T10:44:33.000Z,61.7
2023-04-25T10:45:49.000Z,61.7
2023-04-25T10:47:06.000Z,61
2023-04-25T10:48:21.000Z,60.4
2023-04-25T10:49:37.000Z,60
2023-04-25T10:50:53.000Z,59.5
2023-04-25T10:52:10.071Z,59.6
2023-04-25T10:53:26.290Z,60.6
2023-04-25T10:54:42.552Z,60.5
2023-04-25T10:57:15.021Z,60
2023-04-25T10:58:31.000Z,60
2023-04-25T10:59:47.000Z,59.5
2023-04-25T11:01:03.000Z,59.6
2023-04-25T11:02:20.000Z,60.2
2023-04-25T11:03:36.000Z,60.4
2023-04-25T11:04:51.000Z,61.2
2023-04-25T11:06:07.716Z,61.2
2023-04-25T11:07:23.000Z,62.4
2023-04-25T11:08:40.000Z,62.6
2023-04-25T11:09:56.000Z,62.4
2023-04-25T11:11:12.000Z,62.9
2023-04-25T11:12:28.000Z,62.6
2023-04-25T11:13:45.000Z,62
2023-04-25T11:15:01.000Z,62
2023-04-25T11:16:17.000Z,62.3
2023-04-25T11:17:33.000Z,62.6
2023-04-25T11:18:50.000Z,62.3
2023-04-25T11:20:06.000Z,62.6
2023-04-25T11:21:21.607Z,62.1
2023-04-25T11:22:37.000Z,61.8
2023-04-25T11:23:54.000Z,62.3
2023-04-25T11:25:10.000Z,62.8
2023-04-25T11:26:26.000Z,62.7
2023-04-25T11:27:42.794Z,63.7
2023-04-25T11:28:59.000Z,62.5
2023-04-25T11:30:15.000Z,62.9
2023-04-25T11:31:31.510Z,63.2
2023-04-25T11:32:47.000Z,63.4
2023-04-25T11:34:03.996Z,64.3
2023-04-25T11:35:20.000Z,64.7
2023-04-25T11:36:36.000Z,64.5
2023-04-25T11:37:52.000Z,63.4
2023-04-25T11:39:07.976Z,63.3
2023-04-25T11:40:24.000Z,63.7
2023-04-25T11:41:40.000Z,63.3
2023-04-25T11:42:56.000Z,62.7
2023-04-25T11:44:12.000Z,63.1
2023-04-25T11:45:29.000Z,63.8
2023-04-25T11:46:45.000Z,63.6
2023-04-25T11:48:01.000Z,64.2
2023-04-25T11:49:17.896Z,64.4
2023-04-25T11:50:34.000Z,63.3
2023-04-25T11:51:53.000Z,63.8
2023-04-25T11:53:06.000Z,63
2023-04-25T11:54:22.000Z,63.2
2023-04-25T11:55:38.000Z,63.2
2023-04-25T11:56:54.000Z,62.4
2023-04-25T11:58:10.000Z,62.4
2023-04-25T11:59:26.819Z,61.9
2023-04-25T12:00:43.000Z,61.7
2023-04-25T12:01:59.000Z,61.9
2023-04-25T12:03:15.000Z,61.9
2023-04-25T12:04:31.000Z,62.3
2023-04-25T12:05:48.000Z,62.6
2023-04-25T12:07:04.000Z,62.5
2023-04-25T12:08:20.000Z,62.3
2023-04-25T12:09:36.000Z,61.3
2023-04-25T12:10:53.000Z,61.7
2023-04-25T12:12:08.000Z,61.4
2023-04-25T12:13:24.000Z,60.9
2023-04-25T12:14:40.000Z,60.8
2023-04-25T12:15:56.000Z,59.9
2023-04-25T12:17:13.000Z,59.9
2023-04-25T12:18:29.000Z,59.3
2023-04-25T12:19:45.000Z,59.1
2023-04-25T12:21:01.000Z,59
2023-04-25T12:22:18.145Z,59.1
2023-04-25T12:23:34.000Z,58.8
2023-04-25T12:24:50.000Z,59.3
2023-04-25T12:26:06.000Z,59.8
2023-04-25T12:27:23.000Z,59.7
2023-04-25T12:28:38.000Z,59.3
2023-04-25T12:29:54.000Z,59.1
2023-04-25T12:31:10.000Z,59.4
2023-04-25T12:32:27.000Z,58.5
2023-04-25T12:33:43.000Z,58.8
2023-04-25T12:34:59.000Z,58.7
2023-04-25T12:36:15.000Z,57.9
2023-04-25T12:37:32.000Z,57.6
2023-04-25T12:38:48.000Z,57.3
2023-04-25T12:40:04.520Z,56.2
2023-04-25T12:41:20.000Z,55.5
2023-04-25T12:42:37.000Z,55
2023-04-25T12:43:53.243Z,54.7
2023-04-25T12:45:09.000Z,54.5
2023-04-25T12:46:24.000Z,54.9
2023-04-25T12:47:44.000Z,55.1
2023-04-25T12:48:57.000Z,56.5
2023-04-25T12:50:13.000Z,56.7
2023-04-25T12:51:29.000Z,57.1
2023-04-25T12:52:45.000Z,55.3
2023-04-25T12:54:02.000Z,55
2023-04-25T12:55:18.000Z,55.6
2023-04-25T12:56:34.000Z,55.8
2023-04-25T12:57:50.888Z,55.8
2023-04-25T12:59:07.000Z,55.7
2023-04-25T13:00:23.000Z,56.6
2023-04-25T13:01:39.000Z,57.4
2023-04-25T13:02:54.000Z,58.1
2023-04-25T13:04:11.000Z,58.2
2023-04-25T13:05:27.000Z,56.8
2023-04-25T13:06:43.000Z,56.9
2023-04-25T13:07:59.000Z,56.4
2023-04-25T13:09:16.000Z,56.4
2023-04-25T13:10:32.000Z,56.1
2023-04-25T13:11:48.000Z,55.7
2023-04-25T13:13:04.000Z,55
2023-04-25T13:14:21.000Z,54.8
2023-04-25T13:15:37.000Z,54.9
2023-04-25T13:16:53.000Z,55.5
2023-04-25T13:18:09.000Z,55.3
2023-04-25T13:19:25.000Z,55.5
2023-04-25T13:20:41.000Z,53.7
2023-04-25T13:21:57.000Z,52.8
2023-04-25T13:23:13.000Z,52.5
2023-04-25T13:24:29.000Z,51.7
2023-04-25T13:25:46.000Z,51
2023-04-25T13:27:02.000Z,50.4
2023-04-25T13:28:18.000Z,50.7
2023-04-25T13:29:34.000Z,49.9
2023-04-25T13:30:51.000Z,50.9
2023-04-25T13:32:07.000Z,50
2023-04-25T13:33:23.000Z,50
2023-04-25T13:34:39.000Z,49.7
2023-04-25T13:35:55.000Z,49.8
2023-04-25T13:37:11.000Z,49.7
2023-04-25T13:38:27.000Z,49.7
2023-04-25T13:39:43.000Z,49.2
2023-04-25T13:41:00.091Z,48.8
2023-04-25T13:42:16.000Z,49.6
2023-04-25T13:43:32.000Z,49.7
2023-04-25T13:44:48.000Z,49
2023-04-25T13:46:05.000Z,49.7
2023-04-25T13:47:21.000Z,49.2
2023-04-25T13:48:37.000Z,48.5
2023-04-25T13:49:53.000Z,49.1
2023-04-25T13:51:10.000Z,48.9
2023-04-25T13:52:25.000Z,48.4
2023-04-25T13:53:41.000Z,47.5
2023-04-25T13:54:57.000Z,47.2
2023-04-25T13:56:14.000Z,47.4
2023-04-25T13:57:30.000Z,47.2
2023-04-25T13:58:46.465Z,47.4
2023-04-25T14:00:06.000Z,47.3
2023-04-25T14:01:18.000Z,46.9
2023-04-25T14:02:35.000Z,46.9
2023-04-25T14:03:51.000Z,48
2023-04-25T14:05:07.000Z,47
2023-04-25T14:06:23.897Z,46.8
2023-04-25T14:07:40.000Z,46.8
2023-04-25T14:08:55.000Z,47.6
2023-04-25T14:10:11.000Z,46.9
2023-04-25T14:11:27.000Z,47.4
2023-04-25T14:12:44.000Z,46.8
2023-04-25T14:14:00.000Z,46.2
2023-04-25T14:15:16.000Z,45.7
2023-04-25T14:16:32.825Z,46.5
2023-04-25T14:17:49.000Z,46.5
2023-04-25T14:19:05.000Z,45.6
2023-04-25T14:20:21.000Z,46.3
2023-04-25T14:21:37.785Z,45.9
2023-04-25T14:22:54.000Z,46
2023-04-25T14:24:13.000Z,45.4
2023-04-25T14:25:26.000Z,44.6
2023-04-25T14:26:41.000Z,44
2023-04-25T14:27:58.000Z,44
2023-04-25T14:29:14.000Z,42.8
2023-04-25T14:30:29.000Z,42.6
2023-04-25T14:31:45.728Z,43.1
2023-04-25T14:33:05.000Z,43.3
2023-04-25T14:34:18.000Z,43.5
2023-04-25T14:35:34.000Z,43.3
2023-04-25T14:36:50.698Z,43.6
2023-04-25T14:38:06.000Z,44
2023-04-25T14:39:23.000Z,45.3
2023-04-25T14:40:39.000Z,45.6
2023-04-25T14:41:55.000Z,46.3
2023-04-25T14:43:11.000Z,46.7
2023-04-25T14:44:28.000Z,47.5
2023-04-25T14:45:44.000Z,46.9
2023-04-25T14:46:59.000Z,47.4
2023-04-25T14:48:15.000Z,47.7
2023-04-25T14:49:32.000Z,47.8
2023-04-25T14:50:48.000Z,47.4
2023-04-25T14:52:04.584Z,47.4
2023-04-25T14:53:20.000Z,45.5
2023-04-25T14:54:37.000Z,44.3
2023-04-25T14:55:53.000Z,44.5
2023-04-25T14:57:09.000Z,43.9
2023-04-25T14:58:25.000Z,44.6
2023-04-25T14:59:42.000Z,44.6
2023-04-25T15:00:58.000Z,45.3
2023-04-25T15:02:14.000Z,44.5
2023-04-25T15:03:29.000Z,44.7
2023-04-25T15:04:46.000Z,44.5
2023-04-25T15:06:02.000Z,44.2
2023-04-25T15:07:18.000Z,43.5
2023-04-25T15:08:34.000Z,44.4
2023-04-25T15:09:50.000Z,44.1
2023-04-25T15:11:07.000Z,43.6
2023-04-25T15:12:23.427Z,43
2023-04-25T15:13:39.000Z,42.5
2023-04-25T15:14:55.000Z,42.8
2023-04-25T15:16:12.000Z,43
2023-04-25T15:17:28.386Z,43.9
2023-04-25T15:18:44.000Z,45
2023-04-25T15:19:59.000Z,45.3
2023-04-25T15:21:16.000Z,45.8
2023-04-25T15:22:32.000Z,45.5
2023-04-25T15:23:48.000Z,46
2023-04-25T15:25:04.000Z,46.8
2023-04-25T15:26:21.000Z,46.9
2023-04-25T15:27:37.000Z,47.1
2023-04-25T15:28:53.000Z,46.2
2023-04-25T15:30:09.808Z,46.2
2023-04-25T15:31:26.000Z,45.5
2023-04-25T15:32:42.000Z,45.7
2023-04-25T15:33:58.000Z,46.7
2023-04-25T15:35:14.000Z,47.8
2023-04-25T15:36:30.000Z,48.6
2023-04-25T15:37:46.000Z,47.9
2023-04-25T15:39:02.487Z,47.8
2023-04-25T15:40:18.729Z,47.4
2023-04-25T15:41:34.000Z,46.1
2023-04-25T15:42:51.000Z,46.6
2023-04-25T15:44:07.000Z,46.1
2023-04-25T15:45:23.000Z,46.1
2023-04-25T15:46:39.000Z,46.6
2023-04-25T15:47:56.173Z,45.9
2023-04-25T15:49:12.000Z,46.2
2023-04-25T15:50:28.000Z,46.6
2023-04-25T15:51:44.000Z,46.3
2023-04-25T15:53:00.151Z,45.5
2023-04-25T15:54:16.000Z,46.1
2023-04-25T15:55:32.000Z,46.5
2023-04-25T15:56:48.000Z,46.6
2023-04-25T15:58:05.099Z,45.6
2023-04-25T15:59:21.000Z,43.8
2023-04-25T16:00:37.000Z,43.2
2023-04-25T16:01:53.000Z,43.6
2023-04-25T16:03:10.000Z,43
2023-04-25T16:04:26.000Z,43.7
2023-04-25T16:05:42.000Z,44.7
2023-04-25T16:06:58.000Z,45.1
2023-04-25T16:08:15.020Z,45.3
2023-04-25T16:09:30.000Z,45.2
2023-04-25T16:10:46.000Z,44
2023-04-25T16:12:02.000Z,43.8
2023-04-25T16:13:19.000Z,44.1
2023-04-25T16:14:35.000Z,44.7
2023-04-25T16:15:51.476Z,45.3
2023-04-25T16:17:07.708Z,46.3
2023-04-25T16:18:23.000Z,47.1
2023-04-25T16:19:40.000Z,48
2023-04-25T16:20:56.000Z,47.9
2023-04-25T16:22:12.000Z,48.7
2023-04-25T16:23:28.000Z,49.4
2023-04-25T16:24:45.000Z,49.9
2023-04-25T16:26:00.383Z,49.5
2023-04-25T16:27:16.000Z,49.5
2023-04-25T16:28:32.000Z,49.1
2023-04-25T16:29:49.000Z,49.7
2023-04-25T16:31:05.000Z,49.9
2023-04-25T16:32:21.000Z,50.1
2023-04-25T16:33:37.000Z,49.6
2023-04-25T16:34:54.000Z,49.2
2023-04-25T16:36:10.000Z,48.8
2023-04-25T16:37:26.000Z,49.3
2023-04-25T16:38:42.000Z,49.7
2023-04-25T16:39:59.000Z,50.3
2023-04-25T16:41:15.000Z,50.6
2023-04-25T16:42:30.000Z,50.6
2023-04-25T16:43:46.000Z,50.8
2023-04-25T16:45:03.000Z,50.9
2023-04-25T16:46:19.000Z,50.1
2023-04-25T16:47:35.000Z,49.6
2023-04-25T16:48:51.722Z,50
2023-04-25T16:50:07.000Z,50.4
2023-04-25T16:51:24.000Z,50.4
2023-04-25T16:52:40.000Z,50.3
2023-04-25T16:53:56.000Z,50.4
2023-04-25T16:55:12.000Z,50.5
2023-04-25T16:56:29.000Z,50.9
2023-04-25T16:57:45.000Z,51
2023-04-25T16:59:00.000Z,51.3
2023-04-25T17:00:16.000Z,51.4
2023-04-25T17:01:33.000Z,51.3
2023-04-25T17:02:49.000Z,51.4